sensor_id;sensor_type;location;lat;lon;timestamp;P1;durP1;ratioP1;P2;durP2;ratioP2
17852;SDS011;9052;53.494;14.376;2023-08-21T00:01:40;9.23;;;8.00;;
17852;SDS011;9052;53.494;14.376;2023-08-21T00:04:07;19.50;;;8.40;;
17852;SDS011;9052;53.494;14.376;2023-08-21T00:06:34;11.27;;;7.77;;
17852;SDS011;9052;53.494;14.376;2023-08-21T00:09:01;13.23;;;7.30;;
17852;SDS011;9052;53.494;14.376;2023-08-21T00:11:28;14.73;;;8.23;;
17852;SDS011;9052;53.494;14.376;2023-08-21T00:13:54;23.33;;;9.07;;
17852;SDS011;9052;53.494;14.376;2023-08-21T00:16:23;10.37;;;7.90;;
17852;SDS011;9052;53.494;14.376;2023-08-21T00:18:51;12.77;;;8.13;;
17852;SDS011;9052;53.494;14.376;2023-08-21T00:21:19;36.97;;;7.70;;
17852;SDS011;9052;53.494;14.376;2023-08-21T00:23:46;16.00;;;9.30;;
17852;SDS011;9052;53.494;14.376;2023-08-21T00:26:12;13.03;;;8.10;;
17852;SDS011;9052;53.494;14.376;2023-08-21T00:28:39;17.43;;;8.83;;
17852;SDS011;9052;53.494;14.376;2023-08-21T00:31:06;19.87;;;8.27;;
17852;SDS011;9052;53.494;14.376;2023-08-21T00:33:35;10.17;;;7.73;;
17852;SDS011;9052;53.494;14.376;2023-08-21T00:36:03;10.43;;;7.80;;
17852;SDS011;9052;53.494;14.376;2023-08-21T00:38:30;21.23;;;7.40;;
17852;SDS011;9052;53.494;14.376;2023-08-21T00:40:57;10.10;;;8.07;;
17852;SDS011;9052;53.494;14.376;2023-08-21T00:43:24;13.80;;;7.47;;
17852;SDS011;9052;53.494;14.376;2023-08-21T00:45:51;9.97;;;6.47;;
17852;SDS011;9052;53.494;14.376;2023-08-21T00:48:18;12.33;;;7.23;;
17852;SDS011;9052;53.494;14.376;2023-08-21T00:50:47;24.57;;;9.33;;
17852;SDS011;9052;53.494;14.376;2023-08-21T00:53:14;12.57;;;8.10;;
17852;SDS011;9052;53.494;14.376;2023-08-21T00:55:41;13.13;;;8.90;;
17852;SDS011;9052;53.494;14.376;2023-08-21T00:58:08;9.93;;;7.10;;
17852;SDS011;9052;53.494;14.376;2023-08-21T01:00:36;19.50;;;8.27;;
17852;SDS011;9052;53.494;14.376;2023-08-21T01:03:04;9.60;;;7.13;;
17852;SDS011;9052;53.494;14.376;2023-08-21T01:05:31;17.50;;;9.00;;
17852;SDS011;9052;53.494;14.376;2023-08-21T01:08:01;9.03;;;7.43;;
17852;SDS011;9052;53.494;14.376;2023-08-21T01:10:33;13.80;;;8.37;;
17852;SDS011;9052;53.494;14.376;2023-08-21T01:13:17;18.53;;;8.27;;
17852;SDS011;9052;53.494;14.376;2023-08-21T01:15:51;10.33;;;6.90;;
17852;SDS011;9052;53.494;14.376;2023-08-21T01:18:19;14.30;;;7.97;;
17852;SDS011;9052;53.494;14.376;2023-08-21T01:20:47;16.73;;;7.80;;
17852;SDS011;9052;53.494;14.376;2023-08-21T01:23:27;14.57;;;8.00;;
17852;SDS011;9052;53.494;14.376;2023-08-21T01:25:58;12.83;;;9.37;;
17852;SDS011;9052;53.494;14.376;2023-08-21T01:28:25;16.23;;;8.57;;
17852;SDS011;9052;53.494;14.376;2023-08-21T01:30:54;28.23;;;9.47;;
17852;SDS011;9052;53.494;14.376;2023-08-21T01:33:26;13.67;;;7.93;;
17852;SDS011;9052;53.494;14.376;2023-08-21T01:35:53;12.50;;;7.33;;
17852;SDS011;9052;53.494;14.376;2023-08-21T01:38:21;24.50;;;7.63;;
17852;SDS011;9052;53.494;14.376;2023-08-21T01:40:49;11.43;;;7.40;;
17852;SDS011;9052;53.494;14.376;2023-08-21T01:43:16;10.70;;;7.23;;
17852;SDS011;9052;53.494;14.376;2023-08-21T01:45:43;13.90;;;7.97;;
17852;SDS011;9052;53.494;14.376;2023-08-21T01:48:10;14.50;;;7.67;;
17852;SDS011;9052;53.494;14.376;2023-08-21T01:50:37;12.30;;;7.87;;
17852;SDS011;9052;53.494;14.376;2023-08-21T01:53:04;7.73;;;6.93;;
17852;SDS011;9052;53.494;14.376;2023-08-21T01:55:32;13.70;;;7.33;;
17852;SDS011;9052;53.494;14.376;2023-08-21T01:58:00;9.73;;;7.23;;
17852;SDS011;9052;53.494;14.376;2023-08-21T02:00:27;10.70;;;6.40;;
17852;SDS011;9052;53.494;14.376;2023-08-21T02:02:54;9.03;;;7.50;;
17852;SDS011;9052;53.494;14.376;2023-08-21T02:05:21;10.80;;;7.40;;
17852;SDS011;9052;53.494;14.376;2023-08-21T02:07:47;12.47;;;6.80;;
17852;SDS011;9052;53.494;14.376;2023-08-21T02:10:14;10.17;;;7.40;;
17852;SDS011;9052;53.494;14.376;2023-08-21T02:12:41;21.07;;;8.83;;
17852;SDS011;9052;53.494;14.376;2023-08-21T02:15:11;13.40;;;8.30;;
17852;SDS011;9052;53.494;14.376;2023-08-21T02:17:39;11.67;;;6.77;;
17852;SDS011;9052;53.494;14.376;2023-08-21T02:20:08;13.43;;;7.13;;
17852;SDS011;9052;53.494;14.376;2023-08-21T02:22:36;9.23;;;6.50;;
17852;SDS011;9052;53.494;14.376;2023-08-21T02:25:03;9.00;;;7.03;;
17852;SDS011;9052;53.494;14.376;2023-08-21T02:27:30;13.60;;;8.50;;
17852;SDS011;9052;53.494;14.376;2023-08-21T02:29:57;12.73;;;7.50;;
17852;SDS011;9052;53.494;14.376;2023-08-21T02:32:25;16.67;;;8.00;;
17852;SDS011;9052;53.494;14.376;2023-08-21T02:34:52;16.23;;;6.57;;
17852;SDS011;9052;53.494;14.376;2023-08-21T02:37:19;9.97;;;7.00;;
17852;SDS011;9052;53.494;14.376;2023-08-21T02:39:46;13.20;;;6.60;;
17852;SDS011;9052;53.494;14.376;2023-08-21T02:42:13;12.93;;;6.80;;
17852;SDS011;9052;53.494;14.376;2023-08-21T02:44:40;18.33;;;7.60;;
17852;SDS011;9052;53.494;14.376;2023-08-21T02:47:07;7.53;;;6.30;;
17852;SDS011;9052;53.494;14.376;2023-08-21T02:49:36;6.77;;;5.33;;
17852;SDS011;9052;53.494;14.376;2023-08-21T02:52:03;10.80;;;6.30;;
17852;SDS011;9052;53.494;14.376;2023-08-21T02:54:30;6.50;;;5.20;;
17852;SDS011;9052;53.494;14.376;2023-08-21T02:56:57;14.57;;;6.50;;
17852;SDS011;9052;53.494;14.376;2023-08-21T02:59:24;20.77;;;7.70;;
17852;SDS011;9052;53.494;14.376;2023-08-21T03:01:51;22.07;;;9.33;;
17852;SDS011;9052;53.494;14.376;2023-08-21T03:04:19;16.37;;;8.77;;
17852;SDS011;9052;53.494;14.376;2023-08-21T03:06:47;11.47;;;8.80;;
17852;SDS011;9052;53.494;14.376;2023-08-21T03:09:14;19.50;;;8.90;;
17852;SDS011;9052;53.494;14.376;2023-08-21T03:11:41;10.10;;;7.47;;
17852;SDS011;9052;53.494;14.376;2023-08-21T03:14:08;18.43;;;10.17;;
17852;SDS011;9052;53.494;14.376;2023-08-21T03:16:35;20.70;;;8.77;;
17852;SDS011;9052;53.494;14.376;2023-08-21T03:19:02;8.70;;;7.70;;
17852;SDS011;9052;53.494;14.376;2023-08-21T03:21:29;11.00;;;7.77;;
17852;SDS011;9052;53.494;14.376;2023-08-21T03:23:57;14.23;;;7.93;;
17852;SDS011;9052;53.494;14.376;2023-08-21T03:26:25;15.83;;;7.00;;
17852;SDS011;9052;53.494;14.376;2023-08-21T03:28:52;15.07;;;8.37;;
17852;SDS011;9052;53.494;14.376;2023-08-21T03:31:19;15.33;;;7.80;;
17852;SDS011;9052;53.494;14.376;2023-08-21T03:33:46;17.53;;;7.80;;
17852;SDS011;9052;53.494;14.376;2023-08-21T03:36:13;9.70;;;6.73;;
17852;SDS011;9052;53.494;14.376;2023-08-21T03:38:40;10.50;;;8.27;;
17852;SDS011;9052;53.494;14.376;2023-08-21T03:41:08;14.20;;;7.97;;
17852;SDS011;9052;53.494;14.376;2023-08-21T03:43:35;12.87;;;7.70;;
17852;SDS011;9052;53.494;14.376;2023-08-21T03:46:02;9.40;;;7.80;;
17852;SDS011;9052;53.494;14.376;2023-08-21T03:48:29;15.63;;;9.40;;
17852;SDS011;9052;53.494;14.376;2023-08-21T03:50:56;12.67;;;8.47;;
17852;SDS011;9052;53.494;14.376;2023-08-21T03:53:23;11.73;;;8.80;;
17852;SDS011;9052;53.494;14.376;2023-08-21T03:55:50;9.87;;;8.30;;
17852;SDS011;9052;53.494;14.376;2023-08-21T03:58:18;8.90;;;8.03;;
17852;SDS011;9052;53.494;14.376;2023-08-21T04:00:45;16.53;;;9.20;;
17852;SDS011;9052;53.494;14.376;2023-08-21T04:03:12;18.97;;;9.57;;
17852;SDS011;9052;53.494;14.376;2023-08-21T04:05:39;10.07;;;7.90;;
17852;SDS011;9052;53.494;14.376;2023-08-21T04:08:06;17.73;;;9.47;;
17852;SDS011;9052;53.494;14.376;2023-08-21T04:10:33;11.30;;;9.57;;
17852;SDS011;9052;53.494;14.376;2023-08-21T04:13:00;22.87;;;10.70;;
17852;SDS011;9052;53.494;14.376;2023-08-21T04:15:29;20.47;;;11.47;;
17852;SDS011;9052;53.494;14.376;2023-08-21T04:17:55;14.10;;;10.23;;
17852;SDS011;9052;53.494;14.376;2023-08-21T04:20:22;23.47;;;9.97;;
17852;SDS011;9052;53.494;14.376;2023-08-21T04:22:52;15.83;;;10.53;;
17852;SDS011;9052;53.494;14.376;2023-08-21T04:25:19;14.60;;;9.00;;
17852;SDS011;9052;53.494;14.376;2023-08-21T04:27:45;18.37;;;11.87;;
17852;SDS011;9052;53.494;14.376;2023-08-21T04:30:13;20.50;;;11.90;;
17852;SDS011;9052;53.494;14.376;2023-08-21T04:32:41;27.00;;;14.13;;
17852;SDS011;9052;53.494;14.376;2023-08-21T04:35:08;16.63;;;11.90;;
17852;SDS011;9052;53.494;14.376;2023-08-21T04:37:37;14.00;;;11.27;;
17852;SDS011;9052;53.494;14.376;2023-08-21T04:40:04;18.63;;;12.43;;
17852;SDS011;9052;53.494;14.376;2023-08-21T04:42:32;19.43;;;12.93;;
17852;SDS011;9052;53.494;14.376;2023-08-21T04:44:59;23.30;;;13.10;;
17852;SDS011;9052;53.494;14.376;2023-08-21T04:47:27;19.40;;;12.53;;
17852;SDS011;9052;53.494;14.376;2023-08-21T04:49:55;25.17;;;12.00;;
17852;SDS011;9052;53.494;14.376;2023-08-21T04:52:23;22.50;;;12.57;;
17852;SDS011;9052;53.494;14.376;2023-08-21T04:54:51;31.73;;;15.33;;
17852;SDS011;9052;53.494;14.376;2023-08-21T04:57:18;32.33;;;16.07;;
17852;SDS011;9052;53.494;14.376;2023-08-21T04:59:46;41.97;;;19.93;;
17852;SDS011;9052;53.494;14.376;2023-08-21T05:02:13;31.77;;;16.40;;
17852;SDS011;9052;53.494;14.376;2023-08-21T05:04:40;38.93;;;14.20;;
17852;SDS011;9052;53.494;14.376;2023-08-21T05:07:09;28.13;;;14.17;;
17852;SDS011;9052;53.494;14.376;2023-08-21T05:09:36;23.10;;;12.27;;
17852;SDS011;9052;53.494;14.376;2023-08-21T05:12:03;21.10;;;10.93;;
17852;SDS011;9052;53.494;14.376;2023-08-21T05:14:31;16.37;;;11.33;;
17852;SDS011;9052;53.494;14.376;2023-08-21T05:16:58;22.53;;;10.50;;
17852;SDS011;9052;53.494;14.376;2023-08-21T05:19:25;29.53;;;12.47;;
17852;SDS011;9052;53.494;14.376;2023-08-21T05:21:52;28.93;;;12.90;;
17852;SDS011;9052;53.494;14.376;2023-08-21T05:24:20;33.53;;;13.70;;
17852;SDS011;9052;53.494;14.376;2023-08-21T05:26:47;20.27;;;10.30;;
17852;SDS011;9052;53.494;14.376;2023-08-21T05:29:14;22.97;;;11.00;;
17852;SDS011;9052;53.494;14.376;2023-08-21T05:31:41;19.20;;;10.80;;
17852;SDS011;9052;53.494;14.376;2023-08-21T05:34:08;17.53;;;10.37;;
17852;SDS011;9052;53.494;14.376;2023-08-21T05:36:35;21.87;;;10.40;;
17852;SDS011;9052;53.494;14.376;2023-08-21T05:39:02;14.30;;;9.30;;
17852;SDS011;9052;53.494;14.376;2023-08-21T05:41:33;19.43;;;10.80;;
17852;SDS011;9052;53.494;14.376;2023-08-21T05:43:59;18.53;;;11.00;;
17852;SDS011;9052;53.494;14.376;2023-08-21T05:46:26;16.40;;;11.10;;
17852;SDS011;9052;53.494;14.376;2023-08-21T05:48:53;21.40;;;11.10;;
17852;SDS011;9052;53.494;14.376;2023-08-21T05:51:20;21.23;;;11.33;;
17852;SDS011;9052;53.494;14.376;2023-08-21T05:53:47;19.70;;;10.40;;
17852;SDS011;9052;53.494;14.376;2023-08-21T05:56:14;15.80;;;11.80;;
17852;SDS011;9052;53.494;14.376;2023-08-21T05:58:42;17.80;;;11.90;;
17852;SDS011;9052;53.494;14.376;2023-08-21T06:01:09;15.30;;;10.50;;
17852;SDS011;9052;53.494;14.376;2023-08-21T06:03:36;29.67;;;11.60;;
17852;SDS011;9052;53.494;14.376;2023-08-21T06:06:03;22.43;;;11.50;;
17852;SDS011;9052;53.494;14.376;2023-08-21T06:08:30;16.63;;;10.73;;
17852;SDS011;9052;53.494;14.376;2023-08-21T06:10:57;13.20;;;10.10;;
17852;SDS011;9052;53.494;14.376;2023-08-21T06:13:24;21.80;;;10.70;;
17852;SDS011;9052;53.494;14.376;2023-08-21T06:15:53;18.87;;;10.00;;
17852;SDS011;9052;53.494;14.376;2023-08-21T06:18:20;21.83;;;9.73;;
17852;SDS011;9052;53.494;14.376;2023-08-21T06:20:46;17.23;;;8.83;;
17852;SDS011;9052;53.494;14.376;2023-08-21T06:23:14;10.47;;;7.40;;
17852;SDS011;9052;53.494;14.376;2023-08-21T06:25:41;10.73;;;8.07;;
17852;SDS011;9052;53.494;14.376;2023-08-21T06:28:09;16.20;;;7.93;;
17852;SDS011;9052;53.494;14.376;2023-08-21T06:30:36;12.57;;;9.80;;
17852;SDS011;9052;53.494;14.376;2023-08-21T06:33:05;14.20;;;8.30;;
17852;SDS011;9052;53.494;14.376;2023-08-21T06:35:31;9.47;;;8.07;;
17852;SDS011;9052;53.494;14.376;2023-08-21T06:37:58;11.13;;;8.17;;
17852;SDS011;9052;53.494;14.376;2023-08-21T06:40:25;9.80;;;8.10;;
17852;SDS011;9052;53.494;14.376;2023-08-21T06:42:52;12.30;;;9.00;;
17852;SDS011;9052;53.494;14.376;2023-08-21T06:45:19;12.00;;;7.63;;
17852;SDS011;9052;53.494;14.376;2023-08-21T06:47:46;8.20;;;6.13;;
17852;SDS011;9052;53.494;14.376;2023-08-21T06:50:17;16.10;;;8.33;;
17852;SDS011;9052;53.494;14.376;2023-08-21T06:52:44;13.63;;;8.03;;
17852;SDS011;9052;53.494;14.376;2023-08-21T06:55:10;9.60;;;7.10;;
17852;SDS011;9052;53.494;14.376;2023-08-21T06:57:37;16.50;;;7.93;;
17852;SDS011;9052;53.494;14.376;2023-08-21T07:00:05;14.50;;;6.77;;
17852;SDS011;9052;53.494;14.376;2023-08-21T07:02:33;11.43;;;6.90;;
17852;SDS011;9052;53.494;14.376;2023-08-21T07:05:03;7.93;;;6.60;;
17852;SDS011;9052;53.494;14.376;2023-08-21T07:07:31;11.37;;;7.07;;
17852;SDS011;9052;53.494;14.376;2023-08-21T07:09:58;8.77;;;6.27;;
17852;SDS011;9052;53.494;14.376;2023-08-21T07:12:25;13.03;;;5.90;;
17852;SDS011;9052;53.494;14.376;2023-08-21T07:14:52;8.87;;;6.20;;
17852;SDS011;9052;53.494;14.376;2023-08-21T07:17:19;10.13;;;6.80;;
17852;SDS011;9052;53.494;14.376;2023-08-21T07:19:46;6.20;;;5.60;;
17852;SDS011;9052;53.494;14.376;2023-08-21T07:22:14;10.40;;;5.60;;
17852;SDS011;9052;53.494;14.376;2023-08-21T07:24:42;8.17;;;5.30;;
17852;SDS011;9052;53.494;14.376;2023-08-21T07:27:09;7.43;;;4.93;;
17852;SDS011;9052;53.494;14.376;2023-08-21T07:29:36;8.60;;;5.03;;
17852;SDS011;9052;53.494;14.376;2023-08-21T07:32:03;10.10;;;4.43;;
17852;SDS011;9052;53.494;14.376;2023-08-21T07:34:30;8.10;;;4.60;;
17852;SDS011;9052;53.494;14.376;2023-08-21T07:36:57;11.17;;;4.60;;
17852;SDS011;9052;53.494;14.376;2023-08-21T07:39:24;13.70;;;6.53;;
17852;SDS011;9052;53.494;14.376;2023-08-21T07:41:52;6.80;;;3.83;;
17852;SDS011;9052;53.494;14.376;2023-08-21T07:44:19;11.60;;;4.93;;
17852;SDS011;9052;53.494;14.376;2023-08-21T07:46:46;9.20;;;4.20;;
17852;SDS011;9052;53.494;14.376;2023-08-21T07:49:13;7.03;;;4.17;;
17852;SDS011;9052;53.494;14.376;2023-08-21T07:51:40;11.67;;;3.97;;
17852;SDS011;9052;53.494;14.376;2023-08-21T07:54:07;8.50;;;5.07;;
17852;SDS011;9052;53.494;14.376;2023-08-21T07:56:33;13.97;;;4.80;;
17852;SDS011;9052;53.494;14.376;2023-08-21T07:59:02;6.23;;;4.13;;
17852;SDS011;9052;53.494;14.376;2023-08-21T08:01:29;4.60;;;4.10;;
17852;SDS011;9052;53.494;14.376;2023-08-21T08:03:58;9.00;;;4.40;;
17852;SDS011;9052;53.494;14.376;2023-08-21T08:06:25;5.10;;;3.13;;
17852;SDS011;9052;53.494;14.376;2023-08-21T08:08:52;8.40;;;4.10;;
17852;SDS011;9052;53.494;14.376;2023-08-21T08:11:19;12.77;;;4.43;;
17852;SDS011;9052;53.494;14.376;2023-08-21T08:13:46;17.23;;;5.20;;
17852;SDS011;9052;53.494;14.376;2023-08-21T08:16:14;5.23;;;3.27;;
17852;SDS011;9052;53.494;14.376;2023-08-21T08:18:41;3.97;;;3.20;;
17852;SDS011;9052;53.494;14.376;2023-08-21T08:21:08;3.67;;;3.10;;
17852;SDS011;9052;53.494;14.376;2023-08-21T08:23:36;5.07;;;2.60;;
17852;SDS011;9052;53.494;14.376;2023-08-21T08:26:03;4.43;;;3.00;;
17852;SDS011;9052;53.494;14.376;2023-08-21T08:28:30;7.33;;;3.10;;
17852;SDS011;9052;53.494;14.376;2023-08-21T08:30:56;3.90;;;2.80;;
17852;SDS011;9052;53.494;14.376;2023-08-21T08:33:25;7.00;;;3.60;;
17852;SDS011;9052;53.494;14.376;2023-08-21T08:35:52;7.63;;;4.13;;
17852;SDS011;9052;53.494;14.376;2023-08-21T08:38:19;5.60;;;3.40;;
17852;SDS011;9052;53.494;14.376;2023-08-21T08:40:46;6.40;;;4.43;;
17852;SDS011;9052;53.494;14.376;2023-08-21T08:43:13;5.37;;;4.10;;
17852;SDS011;9052;53.494;14.376;2023-08-21T08:45:40;8.97;;;3.57;;
17852;SDS011;9052;53.494;14.376;2023-08-21T08:48:07;8.77;;;4.27;;
17852;SDS011;9052;53.494;14.376;2023-08-21T08:50:36;9.03;;;3.73;;
17852;SDS011;9052;53.494;14.376;2023-08-21T08:53:04;4.57;;;3.07;;
17852;SDS011;9052;53.494;14.376;2023-08-21T08:55:33;6.60;;;3.40;;
17852;SDS011;9052;53.494;14.376;2023-08-21T08:58:00;5.47;;;3.20;;
17852;SDS011;9052;53.494;14.376;2023-08-21T09:00:27;7.50;;;3.40;;
17852;SDS011;9052;53.494;14.376;2023-08-21T09:02:54;3.67;;;2.57;;
17852;SDS011;9052;53.494;14.376;2023-08-21T09:05:22;6.60;;;2.27;;
17852;SDS011;9052;53.494;14.376;2023-08-21T09:08:03;9.23;;;3.40;;
17852;SDS011;9052;53.494;14.376;2023-08-21T09:10:35;7.10;;;2.07;;
17852;SDS011;9052;53.494;14.376;2023-08-21T09:13:08;3.50;;;2.20;;
17852;SDS011;9052;53.494;14.376;2023-08-21T09:15:35;4.20;;;1.70;;
17852;SDS011;9052;53.494;14.376;2023-08-21T09:18:03;10.03;;;1.80;;
17852;SDS011;9052;53.494;14.376;2023-08-21T09:20:34;8.93;;;1.70;;
17852;SDS011;9052;53.494;14.376;2023-08-21T09:23:03;2.80;;;1.60;;
17852;SDS011;9052;53.494;14.376;2023-08-21T09:25:33;7.33;;;2.93;;
17852;SDS011;9052;53.494;14.376;2023-08-21T09:28:03;5.27;;;2.53;;
17852;SDS011;9052;53.494;14.376;2023-08-21T09:33:16;8.73;;;2.50;;
17852;SDS011;9052;53.494;14.376;2023-08-21T09:35:44;4.70;;;2.40;;
17852;SDS011;9052;53.494;14.376;2023-08-21T09:38:12;12.83;;;2.70;;
17852;SDS011;9052;53.494;14.376;2023-08-21T09:40:40;4.97;;;2.40;;
17852;SDS011;9052;53.494;14.376;2023-08-21T09:43:08;5.80;;;2.60;;
17852;SDS011;9052;53.494;14.376;2023-08-21T09:45:35;4.70;;;2.63;;
17852;SDS011;9052;53.494;14.376;2023-08-21T09:48:03;5.67;;;2.47;;
17852;SDS011;9052;53.494;14.376;2023-08-21T09:50:30;4.13;;;2.10;;
17852;SDS011;9052;53.494;14.376;2023-08-21T09:52:57;4.80;;;2.83;;
17852;SDS011;9052;53.494;14.376;2023-08-21T09:55:26;6.47;;;3.00;;
17852;SDS011;9052;53.494;14.376;2023-08-21T09:57:55;4.77;;;3.00;;
17852;SDS011;9052;53.494;14.376;2023-08-21T10:00:24;4.97;;;2.70;;
17852;SDS011;9052;53.494;14.376;2023-08-21T10:02:53;2.80;;;2.33;;
17852;SDS011;9052;53.494;14.376;2023-08-21T10:05:20;4.17;;;2.10;;
17852;SDS011;9052;53.494;14.376;2023-08-21T10:07:48;7.77;;;2.80;;
17852;SDS011;9052;53.494;14.376;2023-08-21T10:10:16;6.57;;;3.33;;
17852;SDS011;9052;53.494;14.376;2023-08-21T10:12:45;11.30;;;3.10;;
17852;SDS011;9052;53.494;14.376;2023-08-21T10:15:12;8.80;;;3.17;;
17852;SDS011;9052;53.494;14.376;2023-08-21T10:17:39;6.47;;;3.00;;
17852;SDS011;9052;53.494;14.376;2023-08-21T10:20:08;5.50;;;2.70;;
17852;SDS011;9052;53.494;14.376;2023-08-21T10:22:39;8.93;;;2.97;;
17852;SDS011;9052;53.494;14.376;2023-08-21T10:25:20;2.60;;;2.40;;
17852;SDS011;9052;53.494;14.376;2023-08-21T10:27:51;2.63;;;2.33;;
17852;SDS011;9052;53.494;14.376;2023-08-21T10:30:20;6.77;;;3.60;;
17852;SDS011;9052;53.494;14.376;2023-08-21T10:32:48;3.53;;;2.73;;
17852;SDS011;9052;53.494;14.376;2023-08-21T10:35:16;2.70;;;2.30;;
17852;SDS011;9052;53.494;14.376;2023-08-21T10:40:35;4.30;;;2.43;;
17852;SDS011;9052;53.494;14.376;2023-08-21T10:43:04;4.47;;;3.00;;
17852;SDS011;9052;53.494;14.376;2023-08-21T10:45:31;3.63;;;3.03;;
17852;SDS011;9052;53.494;14.376;2023-08-21T10:47:58;3.80;;;3.30;;
17852;SDS011;9052;53.494;14.376;2023-08-21T10:50:25;6.73;;;2.77;;
17852;SDS011;9052;53.494;14.376;2023-08-21T10:52:52;6.40;;;2.30;;
17852;SDS011;9052;53.494;14.376;2023-08-21T10:55:20;1.80;;;1.50;;
17852;SDS011;9052;53.494;14.376;2023-08-21T10:57:47;2.60;;;2.00;;
17852;SDS011;9052;53.494;14.376;2023-08-21T11:00:17;7.17;;;2.70;;
17852;SDS011;9052;53.494;14.376;2023-08-21T11:02:45;2.10;;;1.90;;
17852;SDS011;9052;53.494;14.376;2023-08-21T11:05:13;4.07;;;1.77;;
17852;SDS011;9052;53.494;14.376;2023-08-21T11:07:41;3.00;;;2.03;;
17852;SDS011;9052;53.494;14.376;2023-08-21T11:10:10;3.43;;;1.87;;
17852;SDS011;9052;53.494;14.376;2023-08-21T11:12:47;3.83;;;1.97;;
17852;SDS011;9052;53.494;14.376;2023-08-21T11:15:17;2.90;;;1.80;;
17852;SDS011;9052;53.494;14.376;2023-08-21T11:17:50;2.17;;;1.73;;
17852;SDS011;9052;53.494;14.376;2023-08-21T11:20:18;1.83;;;1.70;;
17852;SDS011;9052;53.494;14.376;2023-08-21T11:22:56;2.20;;;1.80;;
17852;SDS011;9052;53.494;14.376;2023-08-21T11:25:23;2.83;;;2.10;;
17852;SDS011;9052;53.494;14.376;2023-08-21T11:27:50;4.00;;;2.10;;
17852;SDS011;9052;53.494;14.376;2023-08-21T11:30:20;2.80;;;1.90;;
17852;SDS011;9052;53.494;14.376;2023-08-21T11:32:48;3.83;;;1.90;;
17852;SDS011;9052;53.494;14.376;2023-08-21T11:35:16;2.60;;;2.10;;
17852;SDS011;9052;53.494;14.376;2023-08-21T11:37:43;5.80;;;2.50;;
17852;SDS011;9052;53.494;14.376;2023-08-21T11:40:11;5.10;;;2.03;;
17852;SDS011;9052;53.494;14.376;2023-08-21T11:42:39;5.73;;;1.90;;
17852;SDS011;9052;53.494;14.376;2023-08-21T11:45:06;4.60;;;1.60;;
17852;SDS011;9052;53.494;14.376;2023-08-21T11:47:36;5.83;;;1.53;;
17852;SDS011;9052;53.494;14.376;2023-08-21T11:50:03;7.40;;;1.80;;
17852;SDS011;9052;53.494;14.376;2023-08-21T11:52:32;7.10;;;1.77;;
17852;SDS011;9052;53.494;14.376;2023-08-21T11:55:00;5.30;;;1.73;;
17852;SDS011;9052;53.494;14.376;2023-08-21T11:57:27;2.40;;;1.33;;
17852;SDS011;9052;53.494;14.376;2023-08-21T11:59:55;5.33;;;1.60;;
17852;SDS011;9052;53.494;14.376;2023-08-21T12:02:23;7.50;;;1.30;;
17852;SDS011;9052;53.494;14.376;2023-08-21T12:04:55;5.33;;;1.23;;
17852;SDS011;9052;53.494;14.376;2023-08-21T12:07:27;10.50;;;1.63;;
17852;SDS011;9052;53.494;14.376;2023-08-21T12:09:54;3.90;;;1.37;;
17852;SDS011;9052;53.494;14.376;2023-08-21T12:12:21;2.37;;;1.40;;
17852;SDS011;9052;53.494;14.376;2023-08-21T12:14:48;6.50;;;1.00;;
17852;SDS011;9052;53.494;14.376;2023-08-21T12:17:15;4.87;;;1.10;;
17852;SDS011;9052;53.494;14.376;2023-08-21T12:19:42;5.87;;;1.70;;
17852;SDS011;9052;53.494;14.376;2023-08-21T12:22:11;3.37;;;1.57;;
17852;SDS011;9052;53.494;14.376;2023-08-21T12:24:38;16.43;;;1.83;;
17852;SDS011;9052;53.494;14.376;2023-08-21T12:27:06;7.97;;;1.40;;
17852;SDS011;9052;53.494;14.376;2023-08-21T12:29:33;4.07;;;1.63;;
17852;SDS011;9052;53.494;14.376;2023-08-21T12:32:00;4.93;;;1.57;;
17852;SDS011;9052;53.494;14.376;2023-08-21T12:34:28;3.97;;;1.53;;
17852;SDS011;9052;53.494;14.376;2023-08-21T12:36:54;7.50;;;1.00;;
17852;SDS011;9052;53.494;14.376;2023-08-21T12:39:23;4.00;;;1.47;;
17852;SDS011;9052;53.494;14.376;2023-08-21T12:41:50;1.30;;;1.00;;
17852;SDS011;9052;53.494;14.376;2023-08-21T12:44:16;1.80;;;1.20;;
17852;SDS011;9052;53.494;14.376;2023-08-21T12:46:43;4.87;;;1.20;;
17852;SDS011;9052;53.494;14.376;2023-08-21T12:49:11;7.87;;;1.10;;
17852;SDS011;9052;53.494;14.376;2023-08-21T12:51:38;4.00;;;1.20;;
17852;SDS011;9052;53.494;14.376;2023-08-21T12:54:05;3.53;;;1.10;;
17852;SDS011;9052;53.494;14.376;2023-08-21T12:56:35;3.67;;;1.03;;
17852;SDS011;9052;53.494;14.376;2023-08-21T12:59:02;2.57;;;1.40;;
17852;SDS011;9052;53.494;14.376;2023-08-21T13:01:29;3.17;;;0.90;;
17852;SDS011;9052;53.494;14.376;2023-08-21T13:03:59;2.33;;;1.43;;
17852;SDS011;9052;53.494;14.376;2023-08-21T13:06:26;2.20;;;1.43;;
17852;SDS011;9052;53.494;14.376;2023-08-21T13:08:53;9.83;;;1.23;;
17852;SDS011;9052;53.494;14.376;2023-08-21T13:11:20;2.83;;;1.37;;
17852;SDS011;9052;53.494;14.376;2023-08-21T13:13:48;4.10;;;1.53;;
17852;SDS011;9052;53.494;14.376;2023-08-21T13:16:15;6.43;;;1.63;;
17852;SDS011;9052;53.494;14.376;2023-08-21T13:18:42;3.87;;;1.57;;
17852;SDS011;9052;53.494;14.376;2023-08-21T13:21:09;3.80;;;1.50;;
17852;SDS011;9052;53.494;14.376;2023-08-21T13:23:36;3.10;;;1.67;;
17852;SDS011;9052;53.494;14.376;2023-08-21T13:26:03;3.60;;;1.10;;
17852;SDS011;9052;53.494;14.376;2023-08-21T13:28:30;3.00;;;1.40;;
17852;SDS011;9052;53.494;14.376;2023-08-21T13:30:59;4.20;;;1.50;;
17852;SDS011;9052;53.494;14.376;2023-08-21T13:33:25;5.20;;;1.80;;
17852;SDS011;9052;53.494;14.376;2023-08-21T13:35:53;7.97;;;1.07;;
17852;SDS011;9052;53.494;14.376;2023-08-21T13:38:20;3.13;;;1.20;;
17852;SDS011;9052;53.494;14.376;2023-08-21T13:40:47;5.73;;;1.53;;
17852;SDS011;9052;53.494;14.376;2023-08-21T13:43:14;7.73;;;1.27;;
17852;SDS011;9052;53.494;14.376;2023-08-21T13:45:41;5.90;;;1.10;;
17852;SDS011;9052;53.494;14.376;2023-08-21T13:48:09;1.67;;;1.23;;
17852;SDS011;9052;53.494;14.376;2023-08-21T13:50:36;3.37;;;1.50;;
17852;SDS011;9052;53.494;14.376;2023-08-21T13:53:03;11.53;;;1.73;;
17852;SDS011;9052;53.494;14.376;2023-08-21T13:55:30;4.77;;;2.17;;
17852;SDS011;9052;53.494;14.376;2023-08-21T13:57:57;4.47;;;1.93;;
17852;SDS011;9052;53.494;14.376;2023-08-21T14:00:24;4.27;;;1.30;;
17852;SDS011;9052;53.494;14.376;2023-08-21T14:02:51;4.23;;;1.40;;
17852;SDS011;9052;53.494;14.376;2023-08-21T14:05:19;6.27;;;1.50;;
17852;SDS011;9052;53.494;14.376;2023-08-21T14:07:46;8.97;;;1.63;;
17852;SDS011;9052;53.494;14.376;2023-08-21T14:10:13;1.93;;;1.23;;
17852;SDS011;9052;53.494;14.376;2023-08-21T14:12:40;3.10;;;1.40;;
17852;SDS011;9052;53.494;14.376;2023-08-21T14:15:07;5.07;;;1.20;;
17852;SDS011;9052;53.494;14.376;2023-08-21T14:17:34;2.30;;;1.20;;
17852;SDS011;9052;53.494;14.376;2023-08-21T14:20:01;3.70;;;1.40;;
17852;SDS011;9052;53.494;14.376;2023-08-21T14:22:30;1.47;;;0.90;;
17852;SDS011;9052;53.494;14.376;2023-08-21T14:24:57;2.77;;;1.50;;
17852;SDS011;9052;53.494;14.376;2023-08-21T14:27:24;6.47;;;1.73;;
17852;SDS011;9052;53.494;14.376;2023-08-21T14:29:51;4.80;;;2.37;;
17852;SDS011;9052;53.494;14.376;2023-08-21T14:32:18;4.87;;;2.03;;
17852;SDS011;9052;53.494;14.376;2023-08-21T14:34:45;7.13;;;2.03;;
17852;SDS011;9052;53.494;14.376;2023-08-21T14:37:12;5.10;;;2.43;;
17852;SDS011;9052;53.494;14.376;2023-08-21T14:39:42;5.90;;;2.23;;
17852;SDS011;9052;53.494;14.376;2023-08-21T14:42:09;3.57;;;1.63;;
17852;SDS011;9052;53.494;14.376;2023-08-21T14:44:36;12.67;;;2.60;;
17852;SDS011;9052;53.494;14.376;2023-08-21T14:47:03;6.47;;;2.33;;
17852;SDS011;9052;53.494;14.376;2023-08-21T14:49:30;4.00;;;1.57;;